PWSweather.com
Personal Weather Stations
Station Observations
KMAMEDFI2
Medfield, MA 02052

Medfield, MA 02052

Lat: 42.1900822, Lon: -71.3296889

Elevation: 138

Station Type: Rainwise WS MK-III

http://www.medfieldweather.com

High Low Average
Temperature 85.6°F29.8°C 58.9°F14.9°C 72.4°F22.4°C
Dew Point 70.1°F21.2°C 53.4°F11.9°C 62.8°F17.1°C
Winds 4.6 mph 7.4 kmh Calm Calm 1.0 mph SW1.6 kmh SW
Wind Gusts 9.2 mph14.8 kmh -- 2.0 mph3.2 kmh
Humidity 99% 34% 76%
Pressure 30.09 in1019.0 mb 29.97 in1014.9 mb -
Precipitation 0.00 in0.0 mm - -
Hour Temp Dew Point Humidity Winds Wind Gusts Pressure Precip Precip Rate Daily Precip Total
12:00 AM 67.9°F19.9°C 67.6°F19.8°C 99% Calm Calm -- 29.98 in1015.2 mb - 0.00 in0.0 mm 0.00 in0.0 mm
12:10 AM 67.7°F19.8°C 67.4°F19.7°C 99% Calm Calm -- 29.98 in1015.2 mb - 0.00 in0.0 mm 0.00 in0.0 mm
12:20 AM 67.6°F19.8°C 67.3°F19.6°C 99% Calm Calm -- 29.98 in1015.2 mb - 0.00 in0.0 mm 0.00 in0.0 mm
12:30 AM 67.6°F19.8°C 67.3°F19.6°C 99% Calm Calm -- 29.98 in1015.2 mb - 0.00 in0.0 mm 0.00 in0.0 mm
12:40 AM 67.6°F19.8°C 67.3°F19.6°C 99% Calm Calm -- 29.98 in1015.2 mb - 0.00 in0.0 mm 0.00 in0.0 mm
12:50 AM 67.5°F19.7°C 67.2°F19.6°C 99% Calm Calm -- 29.98 in1015.2 mb - 0.00 in0.0 mm 0.00 in0.0 mm
01:00 AM 67.6°F19.8°C 67.3°F19.6°C 99% Calm Calm -- 29.98 in1015.2 mb - 0.00 in0.0 mm 0.00 in0.0 mm
01:10 AM 67.6°F19.8°C 67.3°F19.6°C 99% Calm Calm -- 29.99 in1015.6 mb - 0.00 in0.0 mm 0.00 in0.0 mm
01:20 AM 67.8°F19.9°C 67.5°F19.7°C 99% Calm Calm -- 29.99 in1015.6 mb - 0.00 in0.0 mm 0.00 in0.0 mm
01:30 AM 67.8°F19.9°C 67.5°F19.7°C 99% Calm Calm -- 29.99 in1015.6 mb - 0.00 in0.0 mm 0.00 in0.0 mm
01:40 AM 67.8°F19.9°C 67.5°F19.7°C 99% Calm Calm 1.2 mph1.9 kmh 29.98 in1015.2 mb - 0.00 in0.0 mm 0.00 in0.0 mm
01:50 AM 67.9°F19.9°C 67.6°F19.8°C 99% Calm Calm -- 29.98 in1015.2 mb - 0.00 in0.0 mm 0.00 in0.0 mm
02:00 AM 67.6°F19.8°C 67.3°F19.6°C 99% Calm Calm 2.3 mph3.7 kmh 29.98 in1015.2 mb - 0.00 in0.0 mm 0.00 in0.0 mm
02:10 AM 67.6°F19.8°C 67.3°F19.6°C 99% Calm Calm 1.2 mph1.9 kmh 29.98 in1015.2 mb - 0.00 in0.0 mm 0.00 in0.0 mm
02:20 AM 67.7°F19.8°C 67.4°F19.7°C 99% 1.2 mph SW1.9 kmh SW 2.3 mph3.7 kmh 29.98 in1015.2 mb - 0.00 in0.0 mm 0.00 in0.0 mm
02:30 AM 67.6°F19.8°C 67.3°F19.6°C 99% 1.2 mph SW1.9 kmh SW 2.3 mph3.7 kmh 29.98 in1015.2 mb - 0.00 in0.0 mm 0.00 in0.0 mm
02:40 AM 67.6°F19.8°C 67.3°F19.6°C 99% Calm Calm -- 29.98 in1015.2 mb - 0.00 in0.0 mm 0.00 in0.0 mm
02:50 AM 67.3°F19.6°C 67.0°F19.4°C 99% Calm Calm -- 29.98 in1015.2 mb - 0.00 in0.0 mm 0.00 in0.0 mm
03:00 AM 66.9°F19.4°C 66.6°F19.2°C 99% Calm Calm -- 29.98 in1015.2 mb - 0.00 in0.0 mm 0.00 in0.0 mm
03:10 AM 66.8°F19.3°C 66.5°F19.2°C 99% Calm Calm -- 29.98 in1015.2 mb - 0.00 in0.0 mm 0.00 in0.0 mm
03:20 AM 66.5°F19.2°C 66.2°F19.0°C 99% Calm Calm -- 29.98 in1015.2 mb - 0.00 in0.0 mm 0.00 in0.0 mm
03:30 AM 66.3°F19.1°C 66.0°F18.9°C 99% Calm Calm -- 29.98 in1015.2 mb - 0.00 in0.0 mm 0.00 in0.0 mm
03:40 AM 65.9°F18.8°C 65.3°F18.5°C 98% Calm Calm -- 29.98 in1015.2 mb - 0.00 in0.0 mm 0.00 in0.0 mm
03:50 AM 65.9°F18.8°C 65.3°F18.5°C 98% Calm Calm -- 29.98 in1015.2 mb - 0.00 in0.0 mm 0.00 in0.0 mm
04:00 AM 65.7°F18.7°C 65.1°F18.4°C 98% Calm Calm -- 29.98 in1015.2 mb - 0.00 in0.0 mm 0.00 in0.0 mm
04:10 AM 65.6°F18.7°C 65.0°F18.3°C 98% Calm Calm -- 29.98 in1015.2 mb - 0.00 in0.0 mm 0.00 in0.0 mm
04:20 AM 65.4°F18.6°C 64.8°F18.2°C 98% Calm Calm -- 29.97 in1014.9 mb - 0.00 in0.0 mm 0.00 in0.0 mm
04:30 AM 65.2°F18.4°C 64.6°F18.1°C 98% Calm Calm -- 29.97 in1014.9 mb - 0.00 in0.0 mm 0.00 in0.0 mm
04:40 AM 65.0°F18.3°C 64.4°F18.0°C 98% Calm Calm -- 29.98 in1015.2 mb - 0.00 in0.0 mm 0.00 in0.0 mm
04:50 AM 64.9°F18.3°C 64.3°F17.9°C 98% Calm Calm -- 29.98 in1015.2 mb - 0.00 in0.0 mm 0.00 in0.0 mm
05:00 AM 64.9°F18.3°C 64.3°F17.9°C 98% Calm Calm -- 29.98 in1015.2 mb - 0.00 in0.0 mm 0.00 in0.0 mm
05:10 AM 65.1°F18.4°C 64.5°F18.1°C 98% Calm Calm -- 29.98 in1015.2 mb - 0.00 in0.0 mm 0.00 in0.0 mm
05:20 AM 65.1°F18.4°C 64.5°F18.1°C 98% Calm Calm -- 29.98 in1015.2 mb - 0.00 in0.0 mm 0.00 in0.0 mm
05:30 AM 64.9°F18.3°C 64.3°F17.9°C 98% Calm Calm -- 29.98 in1015.2 mb - 0.00 in0.0 mm 0.00 in0.0 mm
05:40 AM 64.7°F18.2°C 64.1°F17.8°C 98% Calm Calm -- 29.98 in1015.2 mb - 0.00 in0.0 mm 0.00 in0.0 mm
05:50 AM 64.4°F18.0°C 63.8°F17.7°C 98% Calm Calm -- 29.99 in1015.6 mb - 0.00 in0.0 mm 0.00 in0.0 mm
06:00 AM 64.2°F17.9°C 63.6°F17.6°C 98% Calm Calm -- 29.99 in1015.6 mb - 0.00 in0.0 mm 0.00 in0.0 mm
06:10 AM 64.3°F17.9°C 63.7°F17.6°C 98% Calm Calm -- 29.99 in1015.6 mb - 0.00 in0.0 mm 0.00 in0.0 mm
06:20 AM 64.7°F18.2°C 64.1°F17.8°C 98% Calm Calm -- 29.99 in1015.6 mb - 0.00 in0.0 mm 0.00 in0.0 mm
06:30 AM 64.7°F18.2°C 64.1°F17.8°C 98% Calm Calm -- 29.99 in1015.6 mb - 0.00 in0.0 mm 0.00 in0.0 mm
06:40 AM 65.2°F18.4°C 64.6°F18.1°C 98% Calm Calm -- 29.99 in1015.6 mb - 0.00 in0.0 mm 0.00 in0.0 mm
06:50 AM 65.6°F18.7°C 65.0°F18.3°C 98% Calm Calm -- 29.99 in1015.6 mb - 0.00 in0.0 mm 0.00 in0.0 mm
07:00 AM 66.1°F18.9°C 65.8°F18.8°C 99% Calm Calm -- 30.00 in1015.9 mb - 0.00 in0.0 mm 0.00 in0.0 mm
07:10 AM 66.7°F19.3°C 66.4°F19.1°C 99% Calm Calm -- 30.01 in1016.3 mb - 0.00 in0.0 mm 0.00 in0.0 mm
07:20 AM 67.3°F19.6°C 67.0°F19.4°C 99% Calm Calm -- 30.01 in1016.3 mb - 0.00 in0.0 mm 0.00 in0.0 mm
07:30 AM 67.9°F19.9°C 67.6°F19.8°C 99% 2.3 mph SW3.7 kmh SW 5.8 mph9.3 kmh 30.02 in1016.6 mb - 0.00 in0.0 mm 0.00 in0.0 mm
07:40 AM 68.5°F20.3°C 68.2°F20.1°C 99% 2.3 mph NE3.7 kmh NE 2.3 mph3.7 kmh 30.02 in1016.6 mb - 0.00 in0.0 mm 0.00 in0.0 mm
07:50 AM 68.9°F20.5°C 68.6°F20.3°C 99% 2.3 mph N3.7 kmh N 2.3 mph3.7 kmh 30.03 in1016.9 mb - 0.00 in0.0 mm 0.00 in0.0 mm
08:00 AM 69.4°F20.8°C 69.1°F20.6°C 99% 1.2 mph E1.9 kmh E 1.2 mph1.9 kmh 30.03 in1016.9 mb - 0.00 in0.0 mm 0.00 in0.0 mm
08:10 AM 70.1°F21.2°C 69.8°F21.0°C 99% 2.3 mph SE3.7 kmh SE 2.3 mph3.7 kmh 30.03 in1016.9 mb - 0.00 in0.0 mm 0.00 in0.0 mm
08:20 AM 70.9°F21.6°C 70.0°F21.1°C 97% 2.3 mph SE3.7 kmh SE 2.3 mph3.7 kmh 30.03 in1016.9 mb - 0.00 in0.0 mm 0.00 in0.0 mm
08:30 AM 71.4°F21.9°C 69.3°F20.7°C 93% 1.2 mph ESE1.9 kmh ESE 2.3 mph3.7 kmh 30.04 in1017.3 mb - 0.00 in0.0 mm 0.00 in0.0 mm
08:40 AM 71.9°F22.2°C 70.1°F21.2°C 94% Calm Calm 2.3 mph3.7 kmh 30.04 in1017.3 mb - 0.00 in0.0 mm 0.00 in0.0 mm
08:50 AM 72.2°F22.3°C 69.4°F20.8°C 91% 2.3 mph NE3.7 kmh NE 2.3 mph3.7 kmh 30.05 in1017.6 mb - 0.00 in0.0 mm 0.00 in0.0 mm
09:00 AM 72.8°F22.7°C 69.0°F20.6°C 88% 2.3 mph SW3.7 kmh SW 2.3 mph3.7 kmh 30.05 in1017.6 mb - 0.00 in0.0 mm 0.00 in0.0 mm
09:10 AM 73.5°F23.1°C 68.7°F20.4°C 85% 1.2 mph N1.9 kmh N 2.3 mph3.7 kmh 30.05 in1017.6 mb - 0.00 in0.0 mm 0.00 in0.0 mm
09:20 AM 74.3°F23.5°C 68.5°F20.3°C 82% 1.2 mph NW1.9 kmh NW 2.3 mph3.7 kmh 30.05 in1017.6 mb - 0.00 in0.0 mm 0.00 in0.0 mm
09:30 AM 75.0°F23.9°C 68.4°F20.2°C 80% 2.3 mph W3.7 kmh W 2.3 mph3.7 kmh 30.06 in1017.9 mb - 0.00 in0.0 mm 0.00 in0.0 mm
09:40 AM 75.5°F24.2°C 68.9°F20.5°C 80% Calm Calm 1.2 mph1.9 kmh 30.06 in1017.9 mb - 0.00 in0.0 mm 0.00 in0.0 mm
09:50 AM 75.9°F24.4°C 67.8°F19.9°C 76% 3.5 mph WSW5.6 kmh WSW 3.5 mph5.6 kmh 30.07 in1018.3 mb - 0.00 in0.0 mm 0.00 in0.0 mm
10:00 AM 76.9°F24.9°C 69.1°F20.6°C 77% 2.3 mph W3.7 kmh W 5.8 mph9.3 kmh 30.07 in1018.3 mb - 0.00 in0.0 mm 0.00 in0.0 mm
10:10 AM 78.2°F25.7°C 66.8°F19.3°C 68% 4.6 mph N7.4 kmh N 8.1 mph13.0 kmh 30.07 in1018.3 mb - 0.00 in0.0 mm 0.00 in0.0 mm
10:20 AM 77.9°F25.5°C 66.5°F19.2°C 68% 2.3 mph E3.7 kmh E 2.3 mph3.7 kmh 30.08 in1018.6 mb - 0.00 in0.0 mm 0.00 in0.0 mm
10:30 AM 77.7°F25.4°C 68.0°F20.0°C 72% 2.3 mph N3.7 kmh N 2.3 mph3.7 kmh 30.07 in1018.3 mb - 0.00 in0.0 mm 0.00 in0.0 mm
10:40 AM 78.3°F25.7°C 66.4°F19.1°C 67% 3.5 mph SSE5.6 kmh SSE 5.8 mph9.3 kmh 30.08 in1018.6 mb - 0.00 in0.0 mm 0.00 in0.0 mm
10:50 AM 77.9°F25.5°C 66.1°F18.9°C 67% 2.3 mph SE3.7 kmh SE 5.8 mph9.3 kmh 30.08 in1018.6 mb - 0.00 in0.0 mm 0.00 in0.0 mm
11:00 AM 77.7°F25.4°C 65.9°F18.8°C 67% 3.5 mph NW5.6 kmh NW 5.8 mph9.3 kmh 30.08 in1018.6 mb - 0.00 in0.0 mm 0.00 in0.0 mm
11:10 AM 77.8°F25.4°C 66.8°F19.3°C 69% 1.2 mph S1.9 kmh S 2.3 mph3.7 kmh 30.08 in1018.6 mb - 0.00 in0.0 mm 0.00 in0.0 mm
11:20 AM 79.2°F26.2°C 66.4°F19.1°C 65% 2.3 mph SSE3.7 kmh SSE 3.5 mph5.6 kmh 30.08 in1018.6 mb - 0.00 in0.0 mm 0.00 in0.0 mm
11:30 AM 79.5°F26.4°C 65.3°F18.5°C 62% 1.2 mph NE1.9 kmh NE 2.3 mph3.7 kmh 30.08 in1018.6 mb - 0.00 in0.0 mm 0.00 in0.0 mm
11:40 AM 80.4°F26.9°C 65.2°F18.4°C 60% 2.3 mph WSW3.7 kmh WSW 2.3 mph3.7 kmh 30.08 in1018.6 mb - 0.00 in0.0 mm 0.00 in0.0 mm
11:50 AM 80.5°F26.9°C 65.4°F18.6°C 60% 4.6 mph NNE7.4 kmh NNE 5.8 mph9.3 kmh 30.08 in1018.6 mb - 0.00 in0.0 mm 0.00 in0.0 mm
12:00 PM 80.9°F27.2°C 63.7°F17.6°C 56% 2.3 mph E3.7 kmh E 2.3 mph3.7 kmh 30.09 in1019.0 mb - 0.00 in0.0 mm 0.00 in0.0 mm
12:10 PM 81.4°F27.4°C 66.6°F19.2°C 61% Calm Calm 2.3 mph3.7 kmh 30.09 in1019.0 mb - 0.00 in0.0 mm 0.00 in0.0 mm
12:20 PM 81.6°F27.6°C 64.4°F18.0°C 56% 3.5 mph WNW5.6 kmh WNW 5.8 mph9.3 kmh 30.09 in1019.0 mb - 0.00 in0.0 mm 0.00 in0.0 mm
12:30 PM 81.3°F27.4°C 63.5°F17.5°C 55% 2.3 mph NW3.7 kmh NW 2.3 mph3.7 kmh 30.09 in1019.0 mb - 0.00 in0.0 mm 0.00 in0.0 mm
12:40 PM 82.3°F27.9°C 66.6°F19.2°C 59% 3.5 mph NW5.6 kmh NW 3.5 mph5.6 kmh 30.09 in1019.0 mb - 0.00 in0.0 mm 0.00 in0.0 mm
12:50 PM 82.7°F28.2°C 64.3°F17.9°C 54% 1.2 mph SSW1.9 kmh SSW 5.8 mph9.3 kmh 30.09 in1019.0 mb - 0.00 in0.0 mm 0.00 in0.0 mm
01:00 PM 82.9°F28.3°C 61.2°F16.2°C 48% 3.5 mph ESE5.6 kmh ESE 5.8 mph9.3 kmh 30.09 in1019.0 mb - 0.00 in0.0 mm 0.00 in0.0 mm
01:10 PM 82.9°F28.3°C 63.5°F17.5°C 52% 2.3 mph W3.7 kmh W 3.5 mph5.6 kmh 30.09 in1019.0 mb - 0.00 in0.0 mm 0.00 in0.0 mm
01:20 PM 83.9°F28.8°C 62.7°F17.1°C 49% 1.2 mph NW1.9 kmh NW 3.5 mph5.6 kmh 30.09 in1019.0 mb - 0.00 in0.0 mm 0.00 in0.0 mm
01:30 PM 84.1°F28.9°C 62.9°F17.2°C 49% 3.5 mph WSW5.6 kmh WSW 2.3 mph3.7 kmh 30.09 in1019.0 mb - 0.00 in0.0 mm 0.00 in0.0 mm
01:40 PM 83.6°F28.7°C 63.6°F17.6°C 51% 2.3 mph SE3.7 kmh SE 2.3 mph3.7 kmh 30.09 in1019.0 mb - 0.00 in0.0 mm 0.00 in0.0 mm
01:50 PM 84.2°F29.0°C 62.9°F17.2°C 49% 3.5 mph N5.6 kmh N 2.3 mph3.7 kmh 30.09 in1019.0 mb - 0.00 in0.0 mm 0.00 in0.0 mm
02:00 PM 84.4°F29.1°C 61.4°F16.3°C 46% 1.2 mph NE1.9 kmh NE 2.3 mph3.7 kmh 30.09 in1019.0 mb - 0.00 in0.0 mm 0.00 in0.0 mm
02:10 PM 84.2°F29.0°C 61.8°F16.6°C 47% 4.6 mph SSE7.4 kmh SSE 8.1 mph13.0 kmh 30.09 in1019.0 mb - 0.00 in0.0 mm 0.00 in0.0 mm
02:20 PM 84.4°F29.1°C 61.3°F16.3°C 46% 3.5 mph W5.6 kmh W 5.8 mph9.3 kmh 30.09 in1019.0 mb - 0.00 in0.0 mm 0.00 in0.0 mm
02:30 PM 85.2°F29.6°C 60.8°F16.0°C 44% 4.6 mph N7.4 kmh N 2.3 mph3.7 kmh 30.09 in1019.0 mb - 0.00 in0.0 mm 0.00 in0.0 mm
02:40 PM 83.6°F28.7°C 61.2°F16.2°C 47% Calm Calm -- 30.09 in1019.0 mb - 0.00 in0.0 mm 0.00 in0.0 mm
02:50 PM 83.6°F28.7°C 61.8°F16.6°C 48% 3.5 mph WNW5.6 kmh WNW 5.8 mph9.3 kmh 30.09 in1019.0 mb - 0.00 in0.0 mm 0.00 in0.0 mm
03:00 PM 82.7°F28.2°C 63.3°F17.4°C 52% 1.2 mph E1.9 kmh E 5.8 mph9.3 kmh 30.08 in1018.6 mb - 0.00 in0.0 mm 0.00 in0.0 mm
03:10 PM 84.3°F29.1°C 55.9°F13.3°C 38% 4.6 mph N7.4 kmh N 6.9 mph11.1 kmh 30.08 in1018.6 mb - 0.00 in0.0 mm 0.00 in0.0 mm
03:20 PM 85.1°F29.5°C 53.6°F12.0°C 34% 2.3 mph WSW3.7 kmh WSW 3.5 mph5.6 kmh 30.08 in1018.6 mb - 0.00 in0.0 mm 0.00 in0.0 mm
03:30 PM 84.9°F29.4°C 53.4°F11.9°C 34% 2.3 mph SSE3.7 kmh SSE 2.3 mph3.7 kmh 30.09 in1019.0 mb - 0.00 in0.0 mm 0.00 in0.0 mm
03:40 PM 85.1°F29.5°C 56.7°F13.7°C 38% 3.5 mph WSW5.6 kmh WSW 5.8 mph9.3 kmh 30.09 in1019.0 mb - 0.00 in0.0 mm 0.00 in0.0 mm
03:50 PM 85.5°F29.7°C 55.5°F13.1°C 36% 4.6 mph SW7.4 kmh SW 9.2 mph14.8 kmh 30.09 in1019.0 mb - 0.00 in0.0 mm 0.00 in0.0 mm
04:00 PM 85.2°F29.6°C 56.7°F13.7°C 38% 3.5 mph SW5.6 kmh SW 5.8 mph9.3 kmh 30.09 in1019.0 mb - 0.00 in0.0 mm 0.00 in0.0 mm
04:10 PM 85.6°F29.8°C 55.6°F13.1°C 36% 4.6 mph SW7.4 kmh SW 5.8 mph9.3 kmh 30.08 in1018.6 mb - 0.00 in0.0 mm 0.00 in0.0 mm
04:20 PM 85.2°F29.6°C 53.7°F12.1°C 34% 3.5 mph SW5.6 kmh SW 9.2 mph14.8 kmh 30.08 in1018.6 mb - 0.00 in0.0 mm 0.00 in0.0 mm
04:30 PM 85.0°F29.4°C 55.0°F12.8°C 36% 2.3 mph E3.7 kmh E 2.3 mph3.7 kmh 30.08 in1018.6 mb - 0.00 in0.0 mm 0.00 in0.0 mm
04:40 PM 84.7°F29.3°C 55.6°F13.1°C 37% 3.5 mph SW5.6 kmh SW 3.5 mph5.6 kmh 30.08 in1018.6 mb - 0.00 in0.0 mm 0.00 in0.0 mm
04:50 PM 84.4°F29.1°C 56.0°F13.3°C 38% 3.5 mph SW5.6 kmh SW 8.1 mph13.0 kmh 30.08 in1018.6 mb - 0.00 in0.0 mm 0.00 in0.0 mm
05:00 PM 83.4°F28.6°C 55.8°F13.2°C 39% 3.5 mph E5.6 kmh E 2.3 mph3.7 kmh 30.08 in1018.6 mb - 0.00 in0.0 mm 0.00 in0.0 mm
05:10 PM 82.6°F28.1°C 55.8°F13.2°C 40% Calm Calm 1.2 mph1.9 kmh 30.07 in1018.3 mb - 0.00 in0.0 mm 0.00 in0.0 mm
05:20 PM 82.2°F27.9°C 56.2°F13.4°C 41% 1.2 mph WSW1.9 kmh WSW 3.5 mph5.6 kmh 30.07 in1018.3 mb - 0.00 in0.0 mm 0.00 in0.0 mm
05:30 PM 81.7°F27.6°C 56.4°F13.6°C 42% 2.3 mph NE3.7 kmh NE 5.8 mph9.3 kmh 30.07 in1018.3 mb - 0.00 in0.0 mm 0.00 in0.0 mm
05:40 PM 81.4°F27.4°C 57.4°F14.1°C 44% 2.3 mph SE3.7 kmh SE 2.3 mph3.7 kmh 30.06 in1017.9 mb - 0.00 in0.0 mm 0.00 in0.0 mm
05:50 PM 81.1°F27.3°C 58.3°F14.6°C 46% 2.3 mph N3.7 kmh N 2.3 mph3.7 kmh 30.06 in1017.9 mb - 0.00 in0.0 mm 0.00 in0.0 mm
06:00 PM 80.8°F27.1°C 58.1°F14.5°C 46% 2.3 mph SW3.7 kmh SW 2.3 mph3.7 kmh 30.06 in1017.9 mb - 0.00 in0.0 mm 0.00 in0.0 mm
06:10 PM 80.4°F26.9°C 58.9°F14.9°C 48% 2.3 mph N3.7 kmh N 2.3 mph3.7 kmh 30.06 in1017.9 mb - 0.00 in0.0 mm 0.00 in0.0 mm
06:20 PM 79.9°F26.6°C 57.2°F14.0°C 46% 1.2 mph NE1.9 kmh NE 1.2 mph1.9 kmh 30.06 in1017.9 mb - 0.00 in0.0 mm 0.00 in0.0 mm
06:30 PM 79.4°F26.3°C 59.1°F15.1°C 50% 1.2 mph SW1.9 kmh SW 3.5 mph5.6 kmh 30.06 in1017.9 mb - 0.00 in0.0 mm 0.00 in0.0 mm
06:40 PM 78.5°F25.8°C 59.9°F15.5°C 53% Calm Calm -- 30.06 in1017.9 mb - 0.00 in0.0 mm 0.00 in0.0 mm
06:50 PM 77.5°F25.3°C 60.5°F15.8°C 56% Calm Calm -- 30.05 in1017.6 mb - 0.00 in0.0 mm 0.00 in0.0 mm
07:00 PM 76.5°F24.7°C 59.1°F15.1°C 55% Calm Calm -- 30.06 in1017.9 mb - 0.00 in0.0 mm 0.00 in0.0 mm
07:10 PM 75.5°F24.2°C 59.7°F15.4°C 58% Calm Calm -- 30.05 in1017.6 mb - 0.00 in0.0 mm 0.00 in0.0 mm
07:20 PM 74.5°F23.6°C 59.7°F15.4°C 60% Calm Calm -- 30.05 in1017.6 mb - 0.00 in0.0 mm 0.00 in0.0 mm
07:30 PM 73.4°F23.0°C 59.6°F15.3°C 62% Calm Calm -- 30.05 in1017.6 mb - 0.00 in0.0 mm 0.00 in0.0 mm
07:40 PM 72.5°F22.5°C 60.0°F15.6°C 65% Calm Calm -- 30.05 in1017.6 mb - 0.00 in0.0 mm 0.00 in0.0 mm
07:50 PM 71.6°F22.0°C 59.2°F15.1°C 65% Calm Calm -- 30.05 in1017.6 mb - 0.00 in0.0 mm 0.00 in0.0 mm
08:00 PM 70.6°F21.4°C 59.1°F15.1°C 67% Calm Calm -- 30.05 in1017.6 mb - 0.00 in0.0 mm 0.00 in0.0 mm
08:10 PM 69.4°F20.8°C 58.8°F14.9°C 69% Calm Calm -- 30.05 in1017.6 mb - 0.00 in0.0 mm 0.00 in0.0 mm
08:20 PM 68.3°F20.2°C 58.9°F14.9°C 72% Calm Calm -- 30.05 in1017.6 mb - 0.00 in0.0 mm 0.00 in0.0 mm
08:30 PM 67.7°F19.8°C 60.2°F15.7°C 77% Calm Calm -- 30.05 in1017.6 mb - 0.00 in0.0 mm 0.00 in0.0 mm
08:40 PM 67.1°F19.5°C 60.0°F15.6°C 78% Calm Calm -- 30.05 in1017.6 mb - 0.00 in0.0 mm 0.00 in0.0 mm
08:50 PM 66.4°F19.1°C 59.7°F15.4°C 79% Calm Calm -- 30.05 in1017.6 mb - 0.00 in0.0 mm 0.00 in0.0 mm
09:00 PM 65.6°F18.7°C 59.6°F15.3°C 81% Calm Calm -- 30.05 in1017.6 mb - 0.00 in0.0 mm 0.00 in0.0 mm
09:10 PM 65.1°F18.4°C 59.4°F15.2°C 82% Calm Calm -- 30.05 in1017.6 mb - 0.00 in0.0 mm 0.00 in0.0 mm
09:20 PM 64.5°F18.1°C 59.9°F15.5°C 85% Calm Calm -- 30.05 in1017.6 mb - 0.00 in0.0 mm 0.00 in0.0 mm
09:30 PM 63.9°F17.7°C 60.0°F15.6°C 87% Calm Calm 2.3 mph3.7 kmh 30.06 in1017.9 mb - 0.00 in0.0 mm 0.00 in0.0 mm
09:40 PM 63.9°F17.7°C 60.3°F15.7°C 88% Calm Calm -- 30.06 in1017.9 mb - 0.00 in0.0 mm 0.00 in0.0 mm
09:50 PM 64.1°F17.8°C 60.2°F15.7°C 87% 2.3 mph SW3.7 kmh SW 2.3 mph3.7 kmh 30.06 in1017.9 mb - 0.00 in0.0 mm 0.00 in0.0 mm
10:00 PM 64.4°F18.0°C 60.8°F16.0°C 88% Calm Calm -- 30.06 in1017.9 mb - 0.00 in0.0 mm 0.00 in0.0 mm
10:10 PM 63.8°F17.7°C 60.8°F16.0°C 90% Calm Calm -- 30.06 in1017.9 mb - 0.00 in0.0 mm 0.00 in0.0 mm
10:20 PM 63.6°F17.6°C 60.9°F16.1°C 91% Calm Calm -- 30.06 in1017.9 mb - 0.00 in0.0 mm 0.00 in0.0 mm
10:30 PM 63.1°F17.3°C 60.4°F15.8°C 91% Calm Calm -- 30.06 in1017.9 mb - 0.00 in0.0 mm 0.00 in0.0 mm
10:40 PM 62.8°F17.1°C 60.4°F15.8°C 92% Calm Calm -- 30.07 in1018.3 mb - 0.00 in0.0 mm 0.00 in0.0 mm
10:50 PM 62.5°F16.9°C 60.1°F15.6°C 92% Calm Calm -- 30.07 in1018.3 mb - 0.00 in0.0 mm 0.00 in0.0 mm
11:00 PM 61.9°F16.6°C 59.5°F15.3°C 92% Calm Calm -- 30.07 in1018.3 mb - 0.00 in0.0 mm 0.00 in0.0 mm
11:10 PM 61.5°F16.4°C 59.8°F15.4°C 94% Calm Calm -- 30.07 in1018.3 mb - 0.00 in0.0 mm 0.00 in0.0 mm
11:20 PM 61.3°F16.3°C 60.2°F15.7°C 96% Calm Calm -- 30.07 in1018.3 mb - 0.00 in0.0 mm 0.00 in0.0 mm
11:30 PM 61.1°F16.2°C 59.9°F15.5°C 96% Calm Calm -- 30.07 in1018.3 mb - 0.00 in0.0 mm 0.00 in0.0 mm
11:40 PM 60.8°F16.0°C 59.9°F15.5°C 97% Calm Calm -- 30.07 in1018.3 mb - 0.00 in0.0 mm 0.00 in0.0 mm
11:50 PM 60.3°F15.7°C 59.4°F15.2°C 97% Calm Calm -- 30.07 in1018.3 mb - 0.00 in0.0 mm 0.00 in0.0 mm